Time;durP1;ratioP1;P1;durP2;ratioP2;P2;SDS_P1;SDS_P2;PMS_P1;PMS_P2;Temp;Humidity;BMP_temperature;BMP_pressure;BME280_temperature;BME280_humidity;BME280_pressure;Samples;Min_cycle;Max_cycle;Signal;HPM_P1;HPM_P2
2023/02/02 00:00:52;;;;;;;29.75;4.22;;;4.30;99.90;;;;;;6186675;23;20013;-73
2023/02/02 00:03:18;;;;;;;32.97;6.28;;;4.20;99.90;;;;;;6186693;23;20005;-74
2023/02/02 00:05:49;;;;;;;30.77;4.15;;;4.30;99.90;;;;;;6184584;23;20477;-74
2023/02/02 00:08:18;;;;;;;;;;;4.30;99.90;;;;;;6185141;23;20048;-73
2023/02/02 00:10:44;;;;;;;37.17;4.60;;;4.30;99.90;;;;;;6184612;23;19979;-74
2023/02/02 00:13:11;;;;;;;24.73;4.32;;;4.50;99.90;;;;;;6184743;23;20151;-74
2023/02/02 00:15:37;;;;;;;26.52;4.45;;;4.40;99.90;;;;;;6186541;23;20112;-74
2023/02/02 00:18:02;;;;;;;29.02;3.92;;;4.40;99.90;;;;;;6184748;23;20021;-73
2023/02/02 00:20:28;;;;;;;29.85;4.50;;;4.40;99.90;;;;;;6159613;23;20072;-74
2023/02/02 00:22:54;;;;;;;24.77;4.28;;;4.40;99.90;;;;;;6186598;23;20118;-74
2023/02/02 00:25:20;;;;;;;32.65;4.93;;;4.40;99.90;;;;;;6186490;23;20020;-74
2023/02/02 00:27:46;;;;;;;25.30;4.28;;;4.50;99.90;;;;;;6187910;23;20013;-73
2023/02/02 00:30:12;;;;;;;31.10;5.55;;;4.40;99.90;;;;;;6188272;23;20021;-73
2023/02/02 00:32:39;;;;;;;35.35;4.28;;;4.50;99.90;;;;;;6188485;23;20088;-74
2023/02/02 00:35:06;;;;;;;30.17;4.35;;;4.50;99.90;;;;;;6187952;23;20084;-73
2023/02/02 00:37:32;;;;;;;32.13;5.07;;;4.50;99.90;;;;;;6188328;23;20059;-73
2023/02/02 00:39:57;;;;;;;26.40;4.13;;;4.40;99.90;;;;;;6187866;23;20013;-73
2023/02/02 00:42:23;;;;;;;33.10;5.15;;;4.50;99.90;;;;;;6186447;23;20044;-73
2023/02/02 00:47:33;;;;;;;33.78;5.22;;;4.60;99.90;;;;;;6186514;23;20017;-73
2023/02/02 00:49:58;;;;;;;27.27;3.90;;;4.60;99.90;;;;;;6161685;23;20354;-73
2023/02/02 00:52:24;;;;;;;29.00;4.93;;;4.60;99.90;;;;;;6186681;23;20127;-73
2023/02/02 00:54:49;;;;;;;35.58;5.28;;;4.70;99.90;;;;;;6161526;23;20017;-73
2023/02/02 00:57:15;;;;;;;28.10;4.68;;;4.70;99.90;;;;;;6186350;23;20145;-73
2023/02/02 00:59:41;;;;;;;37.15;5.13;;;4.80;99.90;;;;;;6187976;23;20009;-74
2023/02/02 01:02:09;;;;;;;40.03;7.30;;;4.80;99.90;;;;;;6186251;23;20017;-74
2023/02/02 01:04:35;;;;;;;36.33;6.72;;;4.90;99.90;;;;;;6187563;23;20450;-74
2023/02/02 01:07:01;;;;;;;29.30;4.25;;;4.80;99.90;;;;;;6186527;23;20009;-74
2023/02/02 01:09:27;;;;;;;34.40;5.20;;;4.90;99.90;;;;;;6188010;23;20020;-73
2023/02/02 01:11:52;;;;;;;30.58;5.18;;;4.90;99.90;;;;;;6187141;23;20056;-74
2023/02/02 01:14:18;;;;;;;27.00;5.05;;;4.80;99.90;;;;;;6188051;23;20071;-74
2023/02/02 01:16:43;;;;;;;24.00;4.07;;;4.90;99.90;;;;;;6188198;23;20024;-74
2023/02/02 01:19:12;;;;;;;29.20;5.20;;;5.00;99.90;;;;;;6187587;23;20017;-74
2023/02/02 01:21:38;;;;;;;30.17;4.45;;;5.00;99.90;;;;;;6185992;23;20051;-74
2023/02/02 01:24:04;;;;;;;29.13;4.40;;;4.90;99.90;;;;;;6186192;23;20084;-74
2023/02/02 01:26:29;;;;;;;24.58;4.22;;;5.00;99.90;;;;;;6187678;23;20373;-73
2023/02/02 01:28:55;;;;;;;31.88;4.50;;;5.00;99.90;;;;;;6186141;23;20513;-73
2023/02/02 01:31:21;;;;;;;34.20;5.00;;;5.00;99.90;;;;;;6186063;23;20350;-73
2023/02/02 01:33:48;;;;;;;28.27;4.45;;;5.10;99.90;;;;;;6186095;23;20020;-73
2023/02/02 01:36:19;;;;;;;26.75;3.78;;;5.10;99.90;;;;;;6185946;23;20020;-74
2023/02/02 01:38:47;;;;;;;24.38;5.63;;;5.10;99.90;;;;;;6185790;23;20013;-73
2023/02/02 01:41:19;;;;;;;28.33;4.10;;;5.10;99.90;;;;;;6187361;23;20013;-74
2023/02/02 01:43:45;;;;;;;29.25;4.38;;;5.10;99.90;;;;;;6185859;23;20479;-73
2023/02/02 01:46:19;;;;;;;30.35;4.95;;;5.10;99.90;;;;;;6161212;23;20080;-73
2023/02/02 01:48:59;;;;;;;30.50;4.13;;;5.20;99.90;;;;;;6187817;23;20374;-73
2023/02/02 01:51:52;;;;;;;28.90;4.55;;;5.20;99.90;;;;;;6187614;23;20024;-73
2023/02/02 01:54:22;;;;;;;24.92;4.18;;;5.30;99.90;;;;;;6186033;23;20442;-73
2023/02/02 01:56:54;;;;;;;21.80;4.05;;;5.30;99.90;;;;;;6187500;23;20016;-74
2023/02/02 01:59:21;;;;;;;24.80;3.28;;;5.30;99.90;;;;;;6186035;23;20013;-74
2023/02/02 02:01:48;;;;;;;32.33;4.60;;;5.30;99.90;;;;;;6185698;23;20020;-74
2023/02/02 02:04:14;;;;;;;25.83;5.35;;;5.30;99.90;;;;;;6187527;23;20338;-73
2023/02/02 02:06:41;;;;;;;29.60;4.65;;;5.40;99.90;;;;;;6187472;23;20013;-73
2023/02/02 02:09:07;;;;;;;28.45;4.57;;;5.50;99.90;;;;;;6187443;23;20315;-74
2023/02/02 02:11:34;;;;;;;28.13;4.03;;;5.50;99.90;;;;;;6185681;23;20070;-73
2023/02/02 02:17:20;;;;;;;21.02;3.35;;;5.40;99.90;;;;;;6187590;23;20093;-74
2023/02/02 02:26:34;;;;;;;25.20;4.47;;;5.50;99.90;;;;;;6187217;23;20013;-74
2023/02/02 02:29:06;;;;;;;29.52;5.45;;;5.50;99.90;;;;;;6185374;23;20052;-74
2023/02/02 02:31:44;;;;;;;29.25;3.92;;;5.60;99.90;;;;;;6185388;23;20118;-74
2023/02/02 02:34:18;;;;;;;24.23;3.65;;;5.70;99.90;;;;;;6187271;23;20009;-74
2023/02/02 02:37:02;;;;;;;30.92;5.32;;;5.50;99.90;;;;;;6185350;23;20021;-74
2023/02/02 02:39:42;;;;;;;30.88;5.07;;;5.60;99.90;;;;;;6186668;23;20438;-74
2023/02/02 02:42:13;;;;;;;23.67;4.00;;;5.60;99.90;;;;;;6187245;23;20013;-74
2023/02/02 02:44:39;;;;;;;22.80;3.90;;;5.70;99.90;;;;;;6184841;23;20009;-74
2023/02/02 02:47:05;;;;;;;28.17;4.28;;;5.70;99.90;;;;;;6185327;23;20016;-74
2023/02/02 02:49:30;;;;;;;35.13;5.10;;;5.80;99.90;;;;;;6185121;23;20017;-74
2023/02/02 02:51:56;;;;;;;23.27;4.25;;;5.80;99.90;;;;;;6185206;23;20102;-74
2023/02/02 02:54:36;;;;;;;25.40;4.68;;;5.80;99.90;;;;;;6185134;23;20013;-74
2023/02/02 02:57:20;;;;;;;33.22;5.75;;;5.80;99.90;;;;;;6185289;23;20020;-74
2023/02/02 03:00:07;;;;;;;30.77;5.55;;;5.90;99.90;;;;;;6186647;23;20337;-74
2023/02/02 03:03:07;;;;;;;27.90;4.72;;;5.90;99.90;;;;;;6185695;23;20021;-74
2023/02/02 03:05:37;;;;;;;27.48;4.93;;;6.00;99.90;;;;;;6185058;23;20059;-74
2023/02/02 03:08:16;;;;;;;;;;;5.90;99.90;;;;;;6187477;23;20017;-74
2023/02/02 03:10:44;;;;;;;25.40;4.70;;;6.10;99.90;;;;;;6185095;23;19912;-74
2023/02/02 03:13:11;;;;;;;21.75;4.05;;;6.20;99.90;;;;;;6184880;23;20017;-74
2023/02/02 03:15:40;;;;;;;21.33;4.18;;;6.20;99.90;;;;;;6184898;23;20012;-74
2023/02/02 03:18:06;;;;;;;27.75;4.97;;;6.30;99.90;;;;;;6185403;23;20064;-74
2023/02/02 03:20:31;;;;;;;19.10;3.38;;;6.20;99.90;;;;;;6185914;23;20040;-74
2023/02/02 03:22:57;;;;;;;25.70;4.35;;;6.30;99.90;;;;;;6184791;23;20416;-74
2023/02/02 03:25:23;;;;;;;24.73;4.00;;;6.30;99.90;;;;;;6186829;23;20084;-74
2023/02/02 03:27:49;;;;;;;23.52;4.30;;;6.20;99.90;;;;;;6186467;23;20079;-74
2023/02/02 03:30:15;;;;;;;24.67;4.18;;;6.20;99.90;;;;;;6186954;23;20020;-74
2023/02/02 03:32:41;;;;;;;36.20;6.00;;;6.20;99.90;;;;;;6187032;23;20005;-74
2023/02/02 03:35:07;;;;;;;26.13;4.28;;;6.20;99.90;;;;;;6186825;23;20090;-74
2023/02/02 03:37:33;;;;;;;23.13;3.22;;;6.40;99.90;;;;;;6185025;23;20013;-74
2023/02/02 03:39:59;;;;;;;17.90;3.28;;;6.30;99.90;;;;;;6186705;23;20013;-74
2023/02/02 03:42:25;;;;;;;15.80;3.45;;;6.30;99.90;;;;;;6186941;23;20033;-74
2023/02/02 03:44:50;;;;;;;19.20;2.75;;;6.30;99.90;;;;;;6184883;23;20346;-74
2023/02/02 03:47:16;;;;;;;15.30;2.92;;;6.30;99.90;;;;;;6185189;23;20013;-74
2023/02/02 03:49:42;;;;;;;14.55;2.58;;;6.30;99.90;;;;;;6186697;23;20017;-74
2023/02/02 03:52:07;;;;;;;13.55;3.13;;;6.20;99.90;;;;;;6160035;23;20038;-74
2023/02/02 03:54:33;;;;;;;11.13;1.83;;;6.20;99.90;;;;;;6186228;23;20028;-74
2023/02/02 03:56:59;;;;;;;13.93;2.55;;;6.30;99.90;;;;;;6186546;23;20016;-74
2023/02/02 03:59:24;;;;;;;16.48;2.40;;;6.30;99.90;;;;;;6184719;23;20017;-74
2023/02/02 04:01:50;;;;;;;10.38;2.00;;;6.30;99.90;;;;;;6184747;23;20013;-73
2023/02/02 04:04:16;;;;;;;11.18;1.85;;;6.30;99.90;;;;;;6184695;23;20013;-73
2023/02/02 04:06:41;;;;;;;13.82;2.72;;;6.20;99.90;;;;;;6186559;23;20009;-73
2023/02/02 04:09:07;;;;;;;10.05;1.95;;;6.20;99.90;;;;;;6184661;23;20013;-73
2023/02/02 04:11:33;;;;;;;7.05;1.60;;;6.00;99.90;;;;;;6186522;23;20009;-73
2023/02/02 04:13:58;;;;;;;10.63;1.73;;;6.00;99.90;;;;;;6186487;23;20017;-73
2023/02/02 04:16:24;;;;;;;6.10;1.80;;;5.90;99.90;;;;;;6184604;23;20017;-73
2023/02/02 04:18:49;;;;;;;14.77;2.13;;;5.80;99.90;;;;;;6184702;23;20009;-73
2023/02/02 04:21:15;;;;;;;7.78;1.42;;;5.80;99.90;;;;;;6184508;23;20347;-73
2023/02/02 04:23:41;;;;;;;11.60;2.00;;;5.70;99.90;;;;;;6184505;23;20019;-73
2023/02/02 04:26:06;;;;;;;6.32;1.33;;;5.70;99.90;;;;;;6184625;23;20405;-73
2023/02/02 04:28:32;;;;;;;7.85;2.00;;;5.50;99.90;;;;;;6185997;23;20079;-73
2023/02/02 04:30:58;;;;;;;3.05;1.30;;;5.40;99.90;;;;;;6186390;23;20025;-73
2023/02/02 04:33:25;;;;;;;3.08;1.13;;;5.40;99.90;;;;;;6159790;23;20358;-73
2023/02/02 04:35:51;;;;;;;3.88;1.23;;;5.40;99.90;;;;;;6185966;23;20435;-73
2023/02/02 04:38:17;;;;;;;3.33;1.25;;;5.20;99.90;;;;;;6186020;23;20009;-73
2023/02/02 04:40:45;;;;;;;3.60;1.13;;;5.30;99.90;;;;;;6184369;23;20021;-73
2023/02/02 04:43:10;;;;;;;5.38;1.45;;;5.30;99.90;;;;;;6184472;23;20021;-73
2023/02/02 04:45:37;;;;;;;8.75;1.63;;;5.30;99.90;;;;;;6186331;23;20016;-73
2023/02/02 04:48:03;;;;;;;6.55;1.40;;;5.30;99.90;;;;;;6159830;23;20093;-73
2023/02/02 04:50:29;;;;;;;5.47;1.33;;;5.40;99.90;;;;;;6186372;23;20166;-73
2023/02/02 04:52:55;;;;;;;8.30;1.42;;;5.30;99.90;;;;;;6185980;23;20461;-73
2023/02/02 04:55:21;;;;;;;6.55;1.40;;;5.30;99.90;;;;;;6184496;23;20020;-73
2023/02/02 04:57:47;;;;;;;7.75;1.65;;;5.40;99.90;;;;;;6186345;23;20013;-73
2023/02/02 05:00:13;;;;;;;5.88;1.17;;;5.30;99.90;;;;;;6185831;23;20070;-73
2023/02/02 05:02:40;;;;;;;6.25;1.77;;;5.20;99.90;;;;;;6186395;23;20020;-73
2023/02/02 05:05:09;;;;;;;6.82;1.50;;;5.20;99.90;;;;;;6184412;23;20021;-73
2023/02/02 05:07:35;;;;;;;12.63;1.60;;;5.20;99.90;;;;;;6187206;23;20009;-73
2023/02/02 05:10:00;;;;;;;9.05;1.85;;;5.10;99.90;;;;;;6188019;23;20403;-73
2023/02/02 05:12:26;;;;;;;12.05;1.77;;;5.20;99.90;;;;;;6186195;23;20327;-73
2023/02/02 05:14:52;;;;;;;8.90;1.70;;;5.10;99.90;;;;;;6188030;23;20024;-73
2023/02/02 05:17:17;;;;;;;6.45;1.90;;;5.10;99.90;;;;;;6188184;23;20016;-74
2023/02/02 05:19:43;;;;;;;9.05;1.90;;;5.10;99.90;;;;;;6186031;23;20024;-73
2023/02/02 05:22:09;;;;;;;5.95;1.40;;;5.20;99.90;;;;;;6186065;23;20023;-74
2023/02/02 05:24:34;;;;;;;8.85;1.92;;;5.20;99.90;;;;;;6187987;23;20040;-74
2023/02/02 05:27:00;;;;;;;5.85;2.00;;;5.10;99.90;;;;;;6160919;23;20406;-73
2023/02/02 05:29:27;;;;;;;12.68;2.38;;;5.00;99.90;;;;;;6185987;23;20033;-74
2023/02/02 05:31:53;;;;;;;9.80;2.70;;;5.00;99.90;;;;;;6187820;23;20017;-74
2023/02/02 05:34:19;;;;;;;9.63;2.00;;;5.10;99.90;;;;;;6186037;23;20017;-75
2023/02/02 05:36:45;;;;;;;11.57;2.13;;;5.00;99.90;;;;;;6186310;23;20338;-73
2023/02/02 05:39:10;;;;;;;14.00;1.70;;;4.90;99.90;;;;;;6185869;23;20017;-72
2023/02/02 05:41:36;;;;;;;9.68;1.80;;;4.90;99.90;;;;;;6186230;23;20049;-78
2023/02/02 05:44:02;;;;;;;7.28;1.70;;;5.00;99.90;;;;;;6187661;23;20016;-75
2023/02/02 05:46:28;;;;;;;6.28;1.80;;;4.90;99.90;;;;;;6187575;23;20033;-74
2023/02/02 05:48:54;;;;;;;10.02;1.98;;;4.90;99.90;;;;;;6187834;23;20013;-73
2023/02/02 05:51:25;;;;;;;10.57;1.95;;;4.80;99.90;;;;;;6187310;23;20335;-74
2023/02/02 05:53:51;;;;;;;7.88;1.70;;;4.80;99.90;;;;;;6187680;23;20005;-75
2023/02/02 05:56:17;;;;;;;12.00;1.75;;;4.80;99.90;;;;;;6185786;23;20092;-75
2023/02/02 05:58:43;;;;;;;9.45;1.98;;;4.70;99.90;;;;;;6185817;23;20092;-75
2023/02/02 06:01:09;;;;;;;10.23;2.13;;;4.80;99.90;;;;;;6160990;23;20032;-75
2023/02/02 06:03:35;;;;;;;10.18;1.55;;;4.80;99.90;;;;;;6185799;23;20021;-75
2023/02/02 06:06:01;;;;;;;5.25;1.67;;;4.90;99.90;;;;;;6185700;23;20020;-74
2023/02/02 06:08:27;;;;;;;9.38;1.92;;;4.90;99.90;;;;;;6160851;23;20013;-73
2023/02/02 06:10:52;;;;;;;9.18;1.60;;;4.90;99.90;;;;;;6185749;23;20021;-74
2023/02/02 06:13:18;;;;;;;13.50;1.90;;;4.80;99.90;;;;;;6185682;23;20017;-75
2023/02/02 06:15:43;;;;;;;6.45;1.65;;;4.90;99.90;;;;;;6187476;23;20019;-75
2023/02/02 06:18:09;;;;;;;6.15;1.70;;;4.80;99.90;;;;;;6187585;23;20037;-74
2023/02/02 06:20:35;;;;;;;7.28;1.60;;;4.80;99.90;;;;;;6185530;23;20319;-74
2023/02/02 06:23:01;;;;;;;12.05;1.60;;;4.90;99.90;;;;;;6187388;23;20009;-72
2023/02/02 06:25:27;;;;;;;8.32;2.25;;;4.90;99.90;;;;;;6187192;23;20032;-71
2023/02/02 06:28:00;;;;;;;11.20;1.83;;;4.80;99.90;;;;;;6186656;23;20088;-71
2023/02/02 06:30:26;;;;;;;7.85;1.98;;;4.80;99.90;;;;;;6185357;23;20068;-71
2023/02/02 06:32:52;;;;;;;11.50;2.53;;;4.80;99.90;;;;;;6187303;23;20011;-71
2023/02/02 06:35:18;;;;;;;13.55;2.50;;;4.90;99.90;;;;;;6185282;23;20088;-71
2023/02/02 06:37:44;;;;;;;11.75;2.60;;;4.80;99.90;;;;;;6186631;23;20453;-71
2023/02/02 06:40:11;;;;;;;11.32;3.10;;;4.80;99.90;;;;;;6185329;23;20058;-71
2023/02/02 06:42:36;;;;;;;8.40;3.22;;;4.90;99.90;;;;;;6185352;23;20013;-72
2023/02/02 06:45:03;;;;;;;12.05;2.78;;;5.00;99.90;;;;;;6185335;23;20024;-71
2023/02/02 06:47:31;;;;;;;10.18;3.00;;;5.00;99.90;;;;;;6185428;23;20009;-71
2023/02/02 06:49:57;;;;;;;9.88;3.53;;;5.00;99.90;;;;;;6187098;23;20016;-71
2023/02/02 06:52:22;;;;;;;10.20;3.22;;;4.90;99.90;;;;;;6185271;23;20017;-72
2023/02/02 06:54:49;;;;;;;10.60;2.05;;;5.00;99.90;;;;;;6185122;23;20017;-71
2023/02/02 06:57:15;;;;;;;11.15;2.40;;;5.00;99.90;;;;;;6160328;23;20016;-71
2023/02/02 06:59:40;;;;;;;13.52;1.77;;;4.90;99.90;;;;;;6185074;23;20140;-71
2023/02/02 07:02:12;;;;;;;10.43;2.05;;;4.90;99.90;;;;;;6186645;23;20080;-73
2023/02/02 07:04:38;;;;;;;13.95;2.13;;;5.00;99.90;;;;;;6187012;23;20330;-73
2023/02/02 07:07:04;;;;;;;10.88;1.50;;;4.90;99.90;;;;;;6186544;23;20465;-76
2023/02/02 07:09:32;;;;;;;10.93;1.95;;;4.90;99.90;;;;;;6185129;23;20009;-76
2023/02/02 07:11:58;;;;;;;10.40;1.90;;;5.00;99.90;;;;;;6160237;23;20016;-75
2023/02/02 07:14:24;;;;;;;12.75;1.70;;;4.90;99.90;;;;;;6187084;23;20040;-76
2023/02/02 07:16:49;;;;;;;8.68;2.30;;;5.00;99.90;;;;;;6185178;23;20096;-76
2023/02/02 07:19:15;;;;;;;13.38;2.42;;;4.90;99.90;;;;;;6185150;23;20020;-76
2023/02/02 07:21:41;;;;;;;9.10;2.17;;;5.00;99.90;;;;;;6185153;23;20328;-76
2023/02/02 07:24:07;;;;;;;12.73;2.30;;;4.90;99.90;;;;;;6184947;23;20067;-75
2023/02/02 07:26:34;;;;;;;9.15;2.00;;;5.10;99.90;;;;;;6185207;23;20009;-75
2023/02/02 07:29:00;;;;;;;10.65;1.88;;;5.10;99.90;;;;;;6186965;23;20020;-73
2023/02/02 07:31:26;;;;;;;10.00;1.88;;;5.00;99.90;;;;;;6184925;23;20396;-78
2023/02/02 07:33:53;;;;;;;10.52;2.05;;;5.10;99.90;;;;;;6160319;23;20020;-76
2023/02/02 07:36:22;;;;;;;7.32;1.58;;;5.10;99.90;;;;;;6184923;23;20088;-76
2023/02/02 07:38:49;;;;;;;8.60;1.65;;;5.00;99.90;;;;;;6184871;23;20059;-75
2023/02/02 07:41:15;;;;;;;8.90;2.00;;;5.10;99.90;;;;;;6186577;23;20020;-76
2023/02/02 07:43:41;;;;;;;10.50;1.95;;;5.00;99.90;;;;;;6184720;23;20072;-76
2023/02/02 07:46:08;;;;;;;11.77;2.25;;;5.10;99.90;;;;;;6184775;23;20013;-76
2023/02/02 07:48:35;;;;;;;6.57;1.75;;;5.10;99.90;;;;;;6186620;23;20031;-76
2023/02/02 07:51:03;;;;;;;8.35;1.88;;;5.10;99.90;;;;;;6186488;23;20045;-76
2023/02/02 07:53:30;;;;;;;6.72;1.58;;;5.10;99.90;;;;;;6186115;23;20099;-76
2023/02/02 07:56:13;;;;;;;8.65;1.77;;;5.20;99.90;;;;;;6159976;23;20009;-75
2023/02/02 07:58:39;;;;;;;10.25;2.20;;;5.20;99.90;;;;;;6186621;23;20009;-75
2023/02/02 08:01:06;;;;;;;12.00;2.08;;;5.20;99.90;;;;;;6184583;23;20088;-74
2023/02/02 08:03:33;;;;;;;9.38;2.08;;;5.10;99.90;;;;;;6159951;23;20013;-74
2023/02/02 08:05:59;;;;;;;10.70;1.83;;;5.10;99.90;;;;;;6159786;23;20045;-74
2023/02/02 08:08:24;;;;;;;8.35;1.88;;;5.20;99.90;;;;;;6184555;23;20024;-74
2023/02/02 08:10:52;;;;;;;7.22;1.92;;;5.30;99.90;;;;;;6159821;23;20017;-74
2023/02/02 08:13:18;;;;;;;10.85;2.20;;;5.20;99.90;;;;;;6186515;23;20035;-74
2023/02/02 08:15:43;;;;;;;13.38;2.38;;;5.30;99.90;;;;;;6186553;23;20017;-74
2023/02/02 08:18:09;;;;;;;6.70;1.90;;;5.20;99.90;;;;;;6160024;23;20513;-73
2023/02/02 08:20:35;;;;;;;10.70;2.13;;;5.10;99.90;;;;;;6186380;23;20009;-74
2023/02/02 08:23:00;;;;;;;11.73;2.33;;;5.20;99.90;;;;;;6186437;23;20013;-74
2023/02/02 08:25:27;;;;;;;9.88;2.42;;;5.30;99.90;;;;;;6186485;23;20330;-74
2023/02/02 08:28:01;;;;;;;10.30;2.28;;;5.20;99.90;;;;;;6159535;23;20021;-74
2023/02/02 08:30:27;;;;;;;8.60;2.00;;;5.20;99.90;;;;;;6186480;23;20019;-74
2023/02/02 08:32:53;;;;;;;9.50;1.83;;;5.30;99.90;;;;;;6184990;23;20084;-74
2023/02/02 08:35:18;;;;;;;9.32;2.17;;;5.30;99.90;;;;;;6184973;23;20434;-73
2023/02/02 08:37:48;;;;;;;8.82;2.33;;;5.40;99.90;;;;;;6185910;23;20017;-74
2023/02/02 08:40:14;;;;;;;10.05;2.45;;;5.40;99.90;;;;;;6186233;23;20013;-73
2023/02/02 08:42:39;;;;;;;9.73;2.17;;;5.30;99.90;;;;;;6187328;23;20008;-73
2023/02/02 08:45:06;;;;;;;7.53;1.92;;;5.40;99.90;;;;;;6188273;23;20437;-73
2023/02/02 08:47:31;;;;;;;9.57;2.00;;;5.50;99.90;;;;;;6186880;23;20009;-73
2023/02/02 08:49:57;;;;;;;10.88;2.40;;;5.50;99.90;;;;;;6188256;23;20015;-73
2023/02/02 08:52:23;;;;;;;12.23;3.00;;;5.40;99.90;;;;;;6188228;23;20023;-73
2023/02/02 08:54:48;;;;;;;8.93;1.92;;;5.40;99.90;;;;;;6187836;23;20068;-74
2023/02/02 08:57:14;;;;;;;9.27;2.00;;;5.40;99.90;;;;;;6188160;23;20072;-74
2023/02/02 08:59:40;;;;;;;10.00;2.65;;;5.40;99.90;;;;;;6186235;23;20021;-73
2023/02/02 09:02:05;;;;;;;10.25;2.42;;;5.60;99.90;;;;;;6188143;23;20017;-73
2023/02/02 09:04:31;;;;;;;10.40;2.50;;;5.60;99.90;;;;;;6188243;23;20009;-73
2023/02/02 09:06:57;;;;;;;10.18;2.60;;;5.60;99.90;;;;;;6188140;23;20023;-74
2023/02/02 09:09:22;;;;;;;9.38;2.40;;;5.50;99.90;;;;;;6186222;23;20012;-74
2023/02/02 09:11:48;;;;;;;9.13;2.63;;;5.60;99.90;;;;;;6186269;23;20406;-73
2023/02/02 09:14:14;;;;;;;7.35;2.67;;;5.60;99.90;;;;;;6188013;23;20037;-74
2023/02/02 09:16:40;;;;;;;9.77;2.85;;;5.80;99.90;;;;;;6186127;23;20021;-73
2023/02/02 09:19:05;;;;;;;9.07;2.70;;;5.60;99.90;;;;;;6187920;23;20013;-73
2023/02/02 09:21:35;;;;;;;11.68;3.00;;;5.80;99.90;;;;;;6186118;23;20028;-73
2023/02/02 09:24:06;;;;;;;10.07;2.90;;;5.70;99.90;;;;;;6186096;23;20496;-73
2023/02/02 09:26:31;;;;;;;;;;;5.90;99.90;;;;;;6186349;23;20028;-73
2023/02/02 09:29:02;;;;;;;8.93;3.00;;;5.80;99.90;;;;;;6186044;23;19966;-73
2023/02/02 09:31:29;;;;;;;10.25;3.00;;;5.80;99.90;;;;;;6187569;23;20093;-73
2023/02/02 09:33:54;;;;;;;6.90;2.50;;;5.80;99.90;;;;;;6186117;23;20032;-73
2023/02/02 09:36:22;;;;;;;6.82;2.65;;;5.90;99.90;;;;;;6185976;23;20450;-73
2023/02/02 09:38:49;;;;;;;6.05;2.35;;;6.00;99.90;;;;;;6187822;23;20008;-73
2023/02/02 09:41:37;;;;;;;8.27;3.08;;;6.00;99.90;;;;;;6185806;23;20342;-73
2023/02/02 09:44:27;;;;;;;6.35;2.72;;;6.20;99.90;;;;;;6185927;23;20019;-73
2023/02/02 09:47:17;;;;;;;7.10;2.65;;;6.10;99.90;;;;;;6186017;23;20016;-74
2023/02/02 09:49:54;;;;;;;;;;;6.30;99.90;;;;;;6187994;23;20020;-74
2023/02/02 09:52:29;;;;;;;9.15;2.83;;;6.10;99.90;;;;;;6185740;23;19925;-74
2023/02/02 09:55:12;;;;;;;8.55;3.40;;;6.30;99.90;;;;;;6187228;23;20023;-73
2023/02/02 09:57:46;;;;;;;8.60;3.13;;;6.40;99.90;;;;;;6185708;23;20442;-73
2023/02/02 10:00:51;;;;;;;10.15;3.33;;;6.20;99.90;;;;;;6185639;23;20343;-73
2023/02/02 10:03:34;;;;;;;7.53;3.10;;;6.40;99.90;;;;;;6160470;23;20013;-73
2023/02/02 10:06:03;;;;;;;9.88;3.83;;;6.40;99.90;;;;;;6161194;23;20327;-76
2023/02/02 10:08:42;;;;;;;7.68;2.97;;;6.40;99.90;;;;;;6185584;23;20028;-74
2023/02/02 10:11:27;;;;;;;7.43;3.03;;;6.30;99.90;;;;;;6185606;23;20017;-73
2023/02/02 10:13:57;;;;;;;5.63;2.83;;;6.40;99.90;;;;;;6185548;23;20021;-73
2023/02/02 10:16:24;;;;;;;8.80;3.58;;;6.30;99.90;;;;;;6185629;23;20044;-73
2023/02/02 10:19:08;;;;;;;8.70;3.63;;;6.50;99.90;;;;;;6185635;23;20402;-73
2023/02/02 10:21:39;;;;;;;4.05;2.58;;;6.40;99.90;;;;;;6160708;23;20013;-73
2023/02/02 10:24:16;;;;;;;5.55;3.28;;;6.40;99.90;;;;;;6185496;23;20017;-73
2023/02/02 10:26:48;;;;;;;6.10;3.40;;;6.50;99.90;;;;;;6186838;23;20442;-73
2023/02/02 10:29:16;;;;;;;7.15;3.08;;;6.50;99.90;;;;;;6187442;23;20084;-74
2023/02/02 10:31:50;;;;;;;5.70;2.28;;;6.60;99.90;;;;;;6185504;23;20013;-74
2023/02/02 10:34:39;;;;;;;7.45;3.00;;;6.70;99.90;;;;;;6185526;23;20013;-73
2023/02/02 10:37:27;;;;;;;8.52;2.45;;;6.60;99.90;;;;;;6186315;23;20092;-74
2023/02/02 10:40:08;;;;;;;6.30;2.50;;;6.70;99.90;;;;;;6185361;23;20027;-74
2023/02/02 10:42:34;;;;;;;4.93;2.20;;;6.70;99.90;;;;;;6187222;23;20009;-73
2023/02/02 10:45:19;;;;;;;4.15;2.38;;;6.70;99.90;;;;;;6160314;23;20516;-74
2023/02/02 10:47:46;;;;;;;5.47;2.33;;;6.80;99.90;;;;;;6185913;23;20431;-73
2023/02/02 10:50:11;;;;;;;7.95;2.90;;;6.70;99.90;;;;;;6185293;23;20024;-73
2023/02/02 10:52:39;;;;;;;7.03;2.38;;;6.60;99.90;;;;;;6185262;23;20080;-73
2023/02/02 10:55:42;;;;;;;6.65;2.40;;;6.60;99.90;;;;;;6185298;23;20021;-73
2023/02/02 10:58:11;;;;;;;5.60;2.40;;;6.70;99.90;;;;;;6183419;23;20017;-73
2023/02/02 11:00:53;;;;;;;5.70;2.50;;;6.70;99.90;;;;;;6185717;23;20013;-74
2023/02/02 11:03:22;;;;;;;7.75;3.05;;;6.60;99.90;;;;;;6185546;23;20019;-73
2023/02/02 11:08:44;;;;;;;7.45;2.88;;;6.70;99.90;;;;;;6185316;23;20084;-73
2023/02/02 11:11:11;;;;;;;7.93;2.85;;;6.70;99.90;;;;;;6185360;23;20017;-74
2023/02/02 11:14:12;;;;;;;8.43;2.95;;;6.60;99.90;;;;;;6187095;23;20020;-74
2023/02/02 11:16:43;;;;;;;8.23;2.83;;;6.70;99.90;;;;;;6160366;23;20041;-73
2023/02/02 11:19:21;;;;;;;7.18;2.55;;;6.70;99.90;;;;;;6187140;23;20020;-73
2023/02/02 11:21:53;;;;;;;4.97;1.58;;;6.70;99.90;;;;;;6185197;23;20013;-75
2023/02/02 11:24:47;;;;;;;7.63;2.22;;;6.60;99.90;;;;;;6185332;23;20013;-73
2023/02/02 11:27:19;;;;;;;8.30;2.75;;;6.70;99.90;;;;;;6160289;23;20140;-74
2023/02/02 11:29:48;;;;;;;8.05;2.40;;;6.80;99.90;;;;;;6186472;23;20528;-73
2023/02/02 11:32:23;;;;;;;5.07;2.20;;;6.70;99.90;;;;;;6184937;23;20021;-73
2023/02/02 11:35:07;;;;;;;7.15;2.45;;;6.70;99.90;;;;;;6160158;23;20096;-73
2023/02/02 11:38:11;;;;;;;9.75;2.20;;;6.70;99.90;;;;;;6160078;23;20117;-73
2023/02/02 11:40:51;;;;;;;6.05;2.47;;;6.60;99.90;;;;;;6174462;23;20013;-74
2023/02/02 11:43:26;;;;;;;6.97;2.45;;;6.70;99.90;;;;;;6184891;23;20019;-74
2023/02/02 11:45:58;;;;;;;6.32;2.25;;;6.70;99.90;;;;;;6184769;23;20013;-74
2023/02/02 11:48:29;;;;;;;6.13;3.00;;;6.70;99.90;;;;;;6186759;23;20373;-75
2023/02/02 11:50:57;;;;;;;6.63;2.70;;;6.70;99.90;;;;;;6159822;23;20048;-75
2023/02/02 11:53:28;;;;;;;4.07;2.53;;;6.60;99.90;;;;;;6186531;23;20013;-74
2023/02/02 11:55:55;;;;;;;7.55;3.15;;;6.70;99.90;;;;;;6186143;23;20442;-74
2023/02/02 11:58:41;;;;;;;7.57;2.75;;;6.70;99.90;;;;;;6185050;23;20013;-75
2023/02/02 12:01:28;;;;;;;8.23;3.20;;;6.70;99.90;;;;;;6184541;23;20456;-74
2023/02/02 12:03:57;;;;;;;5.75;2.50;;;6.70;99.90;;;;;;6185814;23;20017;-74
2023/02/02 12:06:34;;;;;;;10.38;4.07;;;6.70;99.90;;;;;;6186464;23;20005;-74
2023/02/02 12:09:03;;;;;;;7.22;3.88;;;6.60;99.90;;;;;;6184692;23;20005;-74
2023/02/02 12:11:47;;;;;;;5.90;2.80;;;6.70;99.90;;;;;;6186922;23;20024;-74
2023/02/02 12:14:33;;;;;;;6.75;3.05;;;6.70;99.90;;;;;;6184657;23;20028;-74
2023/02/02 12:17:05;;;;;;;6.63;3.22;;;6.70;99.90;;;;;;6186086;23;20334;-73
2023/02/02 12:19:38;;;;;;;7.30;2.67;;;6.70;99.90;;;;;;6161944;23;20009;-73
2023/02/02 12:22:18;;;;;;;6.80;2.80;;;6.60;99.90;;;;;;6188624;23;20024;-74
2023/02/02 12:24:54;;;;;;;9.43;3.00;;;6.70;99.90;;;;;;6186659;23;20012;-74
2023/02/02 12:27:44;;;;;;;6.22;2.80;;;6.70;99.90;;;;;;6186668;23;20017;-74
2023/02/02 12:30:46;;;;;;;7.97;3.10;;;6.60;99.90;;;;;;6186646;23;20032;-74
2023/02/02 12:33:21;;;;;;;6.22;3.00;;;6.80;99.90;;;;;;6188648;23;20039;-74
2023/02/02 12:36:07;;;;;;;5.90;2.83;;;6.80;99.90;;;;;;6188408;23;20334;-74
2023/02/02 12:39:03;;;;;;;3.22;2.13;;;6.80;99.90;;;;;;6186552;23;20013;-74
2023/02/02 12:41:38;;;;;;;6.80;2.60;;;6.70;99.90;;;;;;6186676;23;20013;-74
2023/02/02 12:44:03;;;;;;;5.70;2.38;;;6.80;99.90;;;;;;6186515;23;20013;-74
2023/02/02 12:46:57;;;;;;;6.80;2.50;;;6.80;99.90;;;;;;6188219;23;20021;-74
2023/02/02 12:49:44;;;;;;;8.23;2.30;;;6.70;99.90;;;;;;6186490;23;20013;-74
2023/02/02 12:52:34;;;;;;;7.90;2.70;;;6.80;99.90;;;;;;6186514;23;20442;-74
2023/02/02 12:55:42;;;;;;;7.22;2.28;;;6.80;99.90;;;;;;6188292;23;20020;-74
2023/02/02 12:58:31;;;;;;;6.28;2.00;;;6.60;99.90;;;;;;6174423;23;20013;-74
2023/02/02 13:01:09;;;;;;;5.45;1.80;;;6.70;99.90;;;;;;6156934;23;20411;-74
2023/02/02 13:04:14;;;;;;;6.47;2.22;;;6.70;99.90;;;;;;6186582;23;20009;-74
2023/02/02 13:07:07;;;;;;;6.95;2.10;;;6.60;99.90;;;;;;6126211;23;20014;-74
2023/02/02 13:09:43;;;;;;;6.45;1.83;;;6.60;99.90;;;;;;6101662;23;20064;-74
2023/02/02 13:12:15;;;;;;;7.18;1.63;;;6.70;99.90;;;;;;6101680;23;20018;-74
2023/02/02 13:14:48;;;;;;;6.85;1.70;;;6.80;99.90;;;;;;6126100;23;20049;-74
2023/02/02 13:17:32;;;;;;;7.88;2.40;;;6.80;99.90;;;;;;6102509;23;20040;-74
2023/02/02 13:20:36;;;;;;;9.55;2.30;;;6.80;99.90;;;;;;6077531;23;20014;-74
2023/02/02 13:23:14;;;;;;;5.63;1.80;;;6.80;99.90;;;;;;6125839;23;20014;-74
2023/02/02 13:25:46;;;;;;;10.75;2.17;;;6.80;99.90;;;;;;6125905;23;20166;-75